Flight Track Log - Related Links

Times and Time Zones

All times are in EST time to prevent confusion due to time zone crossing. See the DAL1647 flight status page for this flight to view local times or setup timezone preferences in your user account.

Time Position Orientation Groundspeed Altitude Reporting Facility
EST Latitude Longitude Course Direction KTS MPH feet Rate Location/Type
Wed 07:47:46 AM 33.6333 -84.3500 64° Northeast 212 244 3,600  Level Atlanta TRACON
Wed 07:48:47 AM 33.6333 -84.2667 90° East 274 315 6,400 2,484 Climbing Atlanta TRACON
Wed 07:50:52 AM 33.6544 -84.0439 83° East 347 399 11,300 2,562 Climbing Atlanta Center
Wed 07:51:52 AM 33.7022 -83.9214 65° Northeast 381 438 14,300 2,600 Climbing Atlanta Center
Wed 07:52:52 AM 33.7503 -83.7964 65° Northeast 401 461 16,500 1,950 Climbing Atlanta Center
Wed 07:53:00 AM 33.8428 -83.5434 64° Northeast  Level FlightAware Approximate
Wed 07:53:52 AM 33.8061 -83.6539 65° Northeast 441 507 18,200  Level Atlanta Center
Wed 07:54:52 AM 33.8661 -83.5108 63° Northeast 462 532 20,400 1,850 Climbing Atlanta Center
Wed 07:55:52 AM 33.9219 -83.3781 63° Northeast 476 548 21,900 1,300 Climbing Atlanta Center
Wed 07:56:52 AM 33.9981 -83.2269 59° Northeast 502 578 23,000 600 Climbing Atlanta Center
Wed 07:57:52 AM 34.0744 -83.0808 58° Northeast 519 597 23,100 900 Climbing Atlanta Center
Wed 07:58:52 AM 34.1525 -82.9342 57° Northeast 519 597 24,800 1,450 Climbing Atlanta Center
Wed 07:59:52 AM 34.2325 -82.7825 57° Northeast 530 610 26,000 600 Climbing Atlanta Center
Wed 08:00:52 AM 34.3119 -82.6253 59° Northeast 541 623 26,000 100 Level Atlanta Center
Wed 08:01:52 AM 34.3917 -82.4781 57° Northeast 541 623 26,200 1,150 Climbing Atlanta Center
Wed 08:02:52 AM 34.4689 -82.3281 58° Northeast 529 609 28,300 1,400 Climbing Atlanta Center
Wed 08:03:52 AM 34.5461 -82.1775 58° Northeast 524 603 29,000 350 Climbing Atlanta Center
Wed 08:04:52 AM 34.6269 -82.0167 59° Northeast 536 617 29,000  Level Atlanta Center
Wed 08:05:52 AM 34.7178 -81.8403 58° Northeast 558 642 29,000  Level Atlanta Center
Wed 08:06:52 AM 34.8025 -81.6736 58° Northeast 563 648 29,000  Level Atlanta Center
Wed 08:07:52 AM 34.8847 -81.5117 58° Northeast 568 654 29,000  Level Atlanta Center
Wed 08:08:52 AM 34.9647 -81.3419 60° Northeast 568 654 29,000  Level Atlanta Center
Wed 08:09:52 AM 35.0486 -81.1769 58° Northeast 573 659 29,000  Level Atlanta Center
Wed 08:10:52 AM 35.1303 -81.0167 58° Northeast 561 646 29,000  Level Atlanta Center
Wed 08:11:52 AM 35.2114 -80.8458 60° Northeast 571 657 29,000  Level Atlanta Center
Wed 08:12:52 AM 35.2947 -80.6772 59° Northeast 571 657 29,000  Level Atlanta Center
Wed 08:13:52 AM 35.3756 -80.5136 59° Northeast 571 657 29,000  Level Atlanta Center
Wed 08:14:52 AM 35.4503 -80.3600 59° Northeast 571 657 29,000  Level Atlanta Center
Wed 08:15:52 AM 35.5328 -80.1903 59° Northeast 571 657 29,000  Level Atlanta Center
Wed 08:18:01 AM 35.7142 -79.8156 59° Northeast 575 662 29,000  Level Washington Center
Wed 08:19:02 AM 35.7994 -79.6458 58° Northeast 581 669 29,000  Level Washington Center
Wed 08:20:02 AM 35.8903 -79.4867 55° Northeast 574 661 29,000  Level Washington Center
Wed 08:21:03 AM 35.9850 -79.3347 52° Northeast 562 647 29,000  Level Washington Center
Wed 08:22:01 AM 36.0856 -79.1800 51° Northeast 562 647 29,000  Level Washington Center
Wed 08:23:04 AM 36.1819 -79.0222 53° Northeast 562 647 29,000  Level Washington Center
Wed 08:24:01 AM 36.2803 -78.8669 52° Northeast 567 652 29,000  Level Washington Center
Wed 08:25:03 AM 36.3764 -78.7108 53° Northeast 567 652 29,000  Level Washington Center
Wed 08:26:01 AM 36.4722 -78.5519 53° Northeast 567 652 29,000  Level Washington Center
Wed 08:27:02 AM 36.5697 -78.3953 52° Northeast 567 652 29,000  Level Washington Center
Wed 08:28:02 AM 36.6672 -78.2383 52° Northeast 567 652 29,000  Level Washington Center
Wed 08:29:03 AM 36.7497 -78.0933 55° Northeast 567 652 29,000  Level Washington Center
Wed 08:30:01 AM 36.8447 -77.9356 53° Northeast 567 652 29,000  Level Washington Center
Wed 08:31:01 AM 36.9417 -77.7722 53° Northeast 567 652 29,000  Level Washington Center
Wed 08:32:02 AM 37.0361 -77.6136 53° Northeast 567 652 29,000  Level Washington Center
Wed 08:33:03 AM 37.1306 -77.4544 53° Northeast 567 652 29,000  Level Washington Center
Wed 08:34:01 AM 37.2247 -77.2925 54° Northeast 567 652 29,000  Level Washington Center
Wed 08:35:02 AM 37.3333 -77.1250 51° Northeast 567 652 29,000  Level Washington Center
Wed 08:36:03 AM 37.4492 -77.0281 34° Northeast 558 642 29,000  Level Washington Center
Wed 08:37:01 AM 37.5986 -76.9156 31° Northeast 551 634 29,000  Level Washington Center
Wed 08:38:01 AM 37.7331 -76.8156 30° Northeast 551 634 29,000  Level Washington Center
Wed 08:39:03 AM 37.8675 -76.7175 30° Northeast 551 634 29,000  Level Washington Center
Wed 08:40:03 AM 37.9978 -76.6167 31° Northeast 556 640 29,000  Level Washington Center
Wed 08:41:01 AM 38.1342 -76.5131 31° Northeast 562 647 29,000  Level Washington Center
Wed 08:42:02 AM 38.2664 -76.4142 30° Northeast 562 647 29,000  Level Washington Center
Wed 08:43:03 AM 38.3964 -76.3017 34° Northeast 556 640 29,000  Level Washington Center
Wed 08:44:04 AM 38.5242 -76.1808 36° Northeast 562 647 29,000  Level Washington Center
Wed 08:45:01 AM 38.6392 -76.0753 36° Northeast 567 652 29,000 -101 Level Washington Center
Wed 08:46:03 AM 38.7689 -75.9592 35° Northeast 567 652 28,800 -750 Descending Washington Center
Wed 08:47:01 AM 38.8942 -75.8397 37° Northeast 567 652 27,500 -915 Descending Washington Center
Wed 08:48:01 AM 39.0175 -75.7225 36° Northeast 560 644 27,000 -298 Descending Washington Center
Wed 08:49:02 AM 39.1406 -75.6075 36° Northeast 555 639 26,900 -893 Descending Washington Center
Wed 08:50:02 AM 39.2614 -75.4925 36° Northeast 549 632 25,200 -2,000 Descending Washington Center
Wed 08:51:02 AM 39.3819 -75.3847 35° Northeast 544 626 22,900 -2,237 Descending Washington Center
Wed 08:52:00 AM 39.4964 -75.2850 34° Northeast 523 602 20,800 -2,269 Descending Washington Center
Wed 08:53:01 AM 39.6044 -75.1847 36° Northeast 497 572 18,400 -2,083 Descending Washington Center
Wed 08:54:01 AM 39.7167 -75.0789 36° Northeast 465 535 16,600 -1,770 Descending Washington Center
Wed 08:55:03 AM 39.8161 -74.9944 33° Northeast 442 509 14,800 -1,700 Descending Washington Center
Wed 08:56:01 AM 39.9117 -74.9072 35° Northeast 425 489 13,200 -1,373 Descending Washington Center
Wed 08:57:01 AM 40.0000 -74.8000 43° Northeast 413 475 12,100 -1,368 Descending New York TRACON
Wed 08:57:55 AM 40.0667 -74.7000 49° Northeast 395 455 10,600 -1,105 Descending New York TRACON
Wed 08:58:55 AM 40.1333 -74.6000 49° Northeast 362 417 10,000 -300 Descending New York TRACON
Wed 08:59:55 AM 40.1833 -74.5167 52° Northeast 310 357 10,000 -550 Level New York TRACON
Wed 09:01:00 AM 40.2856 -74.3787 57° Northeast  Level FlightAware Approximate
Wed 09:02:55 AM 40.3500 -74.3667 30° Northeast 298 343 7,800  Level New York TRACON
Wed 09:04:00 AM 40.4610 -74.2391 30° Northeast  Level Estimated
Wed 09:04:49 AM 40.4333 -74.2167 30° Northeast 277 319 7,000  Level New York TRACON
Wed 09:05:49 AM 40.5000 -74.1500 37° Northeast 274 315 6,200 -950 Descending New York TRACON
Wed 09:06:49 AM 40.5500 -74.1000 37° Northeast 263 303 5,100 -1,211 Descending New York TRACON
Wed 09:07:43 AM 40.6000 -74.0500 37° Northeast 250 288 3,900 -1,105 Descending New York TRACON
Wed 09:08:00 AM 40.7667 -73.8667 30° Northeast  Level FlightAware Approximate
Wed 09:08:43 AM 40.6500 -74.0000 37° Northeast 225 259 3,000  Level New York TRACON
Wed 09:09:43 AM 40.7000 -73.9500 37° Northeast 183 211 2,500 -651 Descending New York TRACON
Wed 09:11:38 AM 40.7333 -73.8500 66° East 140 161 1,100 -724 Descending New York TRACON
Wed 09:12:37 AM 40.7667 -73.8333 21° North 129 148 400 -712 Descending New York TRACON

Login

Don't have an account? Register now (free) for customized features, flight alerts, and more!